Time;durP1;ratioP1;P1;durP2;ratioP2;P2;SDS_P1;SDS_P2;PMS_P1;PMS_P2;Temp;Humidity;BMP_temperature;BMP_pressure;BME280_temperature;BME280_humidity;BME280_pressure;Samples;Min_cycle;Max_cycle;Signal;HPM_P1;HPM_P2
2022/10/16 00:01:59;;;;;;;10.80;5.30;;;;;;;5.89;63.23;100687.13;106678;1301;136971;-69
2022/10/16 00:04:26;;;;;;;;;;;;;;;5.87;63.38;100687.95;106809;1302;22476;-69
2022/10/16 00:06:53;;;;;;;8.80;4.60;;;;;;;5.83;63.73;100691.17;106719;1295;123584;-69
2022/10/16 00:09:20;;;;;;;7.80;5.10;;;;;;;5.77;63.97;100691.92;106804;1300;22416;-68
2022/10/16 00:11:46;;;;;;;9.30;5.50;;;;;;;5.72;64.07;100691.02;106736;1302;23045;-68
2022/10/16 00:14:14;;;;;;;8.60;5.30;;;;;;;5.66;63.81;100690.94;106660;1294;136992;-69
2022/10/16 00:16:41;;;;;;;17.10;6.30;;;;;;;5.62;64.27;100685.55;106780;1288;22094;-68
2022/10/16 00:19:08;;;;;;;11.00;6.00;;;;;;;5.57;64.37;100688.91;106690;1302;137518;-69
2022/10/16 00:21:35;;;;;;;12.10;5.70;;;;;;;5.48;64.35;100692.60;106558;1295;22151;-68
2022/10/16 00:24:06;;;;;;;9.80;5.40;;;;;;;5.38;64.44;100689.23;106792;1302;22147;-68
2022/10/16 00:26:33;;;;;;;8.70;5.00;;;;;;;5.30;64.77;100685.48;106629;1302;138267;-68
2022/10/16 00:29:00;;;;;;;8.30;5.10;;;;;;;5.28;64.70;100685.41;106763;1295;22157;-68
2022/10/16 00:31:26;;;;;;;;;;;;;;;5.26;64.89;100684.30;106596;1301;138155;-68
2022/10/16 00:33:53;;;;;;;9.20;5.00;;;;;;;5.23;64.97;100685.39;106768;1301;22234;-68
2022/10/16 00:36:21;;;;;;;8.70;5.40;;;;;;;5.21;65.02;100692.65;106783;1301;22244;-69
2022/10/16 00:38:52;;;;;;;8.30;5.10;;;;;;;5.19;65.31;100689.86;106648;1302;137753;-69
2022/10/16 00:41:19;;;;;;;10.80;6.00;;;;;;;5.20;65.10;100691.90;106767;1302;22117;-70
2022/10/16 00:43:47;;;;;;;;;;;;;;;5.23;65.25;100694.58;106665;1302;137969;-69
2022/10/16 00:46:22;;;;;;;9.60;4.80;;;;;;;5.25;65.52;100693.40;106696;1301;22025;-69
2022/10/16 00:49:08;;;;;;;9.50;5.70;;;;;;;5.24;65.15;100688.11;106544;1288;138297;-68
2022/10/16 00:51:39;;;;;;;8.10;5.00;;;;;;;5.29;65.12;100695.95;106704;1302;22961;-69
2022/10/16 00:54:17;;;;;;;10.40;5.30;;;;;;;5.31;64.94;100694.09;106751;1302;22224;-69
2022/10/16 00:56:45;;;;;;;10.50;5.60;;;;;;;5.34;65.13;100699.80;106551;1301;139092;-69
2022/10/16 00:59:15;;;;;;;10.40;5.40;;;;;;;5.38;65.18;100700.81;106546;1301;22106;-69
2022/10/16 01:01:42;;;;;;;9.10;5.20;;;;;;;5.41;65.04;100703.06;106581;1302;137371;-69
2022/10/16 01:04:08;;;;;;;10.20;5.80;;;;;;;5.46;64.96;100705.94;106760;1301;22176;-69
2022/10/16 01:06:43;;;;;;;7.90;5.30;;;;;;;5.50;65.05;100706.40;106741;1301;22224;-70
2022/10/16 01:09:49;;;;;;;13.10;5.80;;;;;;;5.54;64.88;100709.18;106708;1301;22916;-70
2022/10/16 01:12:38;;;;;;;13.70;5.40;;;;;;;5.57;64.51;100709.88;106658;1302;22329;-70
2022/10/16 01:15:14;;;;;;;9.40;6.20;;;;;;;5.59;64.26;100706.49;106722;1302;22120;-70
2022/10/16 01:17:53;;;;;;;8.20;5.30;;;;;;;5.61;64.17;100705.56;106658;1302;22176;-70
2022/10/16 01:20:54;;;;;;;14.50;6.10;;;;;;;5.61;64.28;100707.18;106566;1302;137062;-71
2022/10/16 01:23:23;;;;;;;12.10;5.60;;;;;;;5.61;64.43;100709.52;106389;1292;22176;-70
2022/10/16 01:25:53;;;;;;;9.80;5.00;;;;;;;5.61;64.37;100711.09;106401;1308;137614;-70
2022/10/16 01:28:22;;;;;;;9.10;5.60;;;;;;;5.61;64.37;100715.45;106441;1300;22579;-71
2022/10/16 01:30:50;;;;;;;10.80;6.30;;;;;;;5.60;64.12;100717.94;106304;1305;138690;-70
2022/10/16 01:33:20;;;;;;;11.00;5.80;;;;;;;5.60;64.31;100721.31;106297;1292;22375;-70
2022/10/16 01:35:58;;;;;;;11.10;6.00;;;;;;;5.62;64.50;100724.98;106287;1302;22345;-70
2022/10/16 01:38:39;;;;;;;9.10;5.50;;;;;;;5.63;64.43;100724.73;106310;1305;137856;-70
2022/10/16 01:41:24;;;;;;;8.50;5.20;;;;;;;5.62;64.50;100724.28;102653;1307;24402;-74
2022/10/16 01:43:56;;;;;;;9.10;5.00;;;;;;;5.60;64.44;100723.22;101614;1287;138182;-74
2022/10/16 01:46:23;;;;;;;12.90;6.50;;;;;;;5.53;64.63;100725.98;101719;1305;22477;-68
2022/10/16 01:48:50;;;;;;;10.00;5.10;;;;;;;5.46;64.59;100730.24;101738;1300;138314;-68
2022/10/16 01:51:17;;;;;;;7.10;5.70;;;;;;;5.39;64.51;100726.06;102010;1313;22631;-68
2022/10/16 01:53:46;;;;;;;11.40;5.70;;;;;;;5.32;65.11;100729.42;101728;1287;24298;-68
2022/10/16 01:56:13;;;;;;;8.70;5.60;;;;;;;5.25;65.40;100729.77;106422;1305;138328;-69
2022/10/16 01:58:42;;;;;;;9.40;6.10;;;;;;;5.17;65.45;100729.16;106412;1306;22199;-69
2022/10/16 02:01:09;;;;;;;9.80;5.50;;;;;;;5.08;65.89;100730.85;106473;1302;138514;-69
2022/10/16 02:03:37;;;;;;;9.50;5.50;;;;;;;5.00;65.98;100734.58;106758;1302;22206;-69
2022/10/16 02:06:03;;;;;;;10.30;5.60;;;;;;;4.91;66.27;100734.77;106759;1280;22190;-70
2022/10/16 02:08:30;;;;;;;8.60;5.30;;;;;;;4.83;66.26;100735.33;106647;1302;139682;-73
2022/10/16 02:10:57;;;;;;;;;;;;;;;4.75;66.63;100740.11;106769;1305;23263;-73
2022/10/16 02:13:34;;;;;;;8.60;4.90;;;;;;;4.68;66.93;100742.26;106678;1287;125432;-74
2022/10/16 02:16:01;;;;;;;8.80;5.50;;;;;;;4.60;67.35;100743.41;106731;1301;22137;-73
2022/10/16 02:18:29;;;;;;;10.00;5.40;;;;;;;4.53;67.42;100745.48;106685;1302;22837;-74
2022/10/16 02:21:19;;;;;;;12.80;6.00;;;;;;;4.45;67.84;100741.45;106604;1302;138733;-74
2022/10/16 02:24:09;;;;;;;10.80;5.20;;;;;;;4.37;67.86;100745.15;106757;1296;22347;-74
2022/10/16 02:26:54;;;;;;;8.10;5.20;;;;;;;4.29;68.08;100746.64;106280;1305;137509;-73
2022/10/16 02:29:23;;;;;;;9.90;5.90;;;;;;;4.21;68.18;100750.84;106358;1306;22370;-74
2022/10/16 02:32:01;;;;;;;9.30;5.70;;;;;;;4.14;68.02;100748.92;106263;1294;137218;-73
2022/10/16 02:34:28;;;;;;;13.80;6.10;;;;;;;4.02;68.40;100747.45;106374;1308;22182;-79
2022/10/16 02:36:54;;;;;;;9.30;5.20;;;;;;;3.99;68.91;100753.02;106118;1308;137346;-76
2022/10/16 02:39:21;;;;;;;;;;;;;;;3.96;69.07;100750.06;106480;1296;22551;-69
2022/10/16 02:41:48;;;;;;;8.70;5.00;;;;;;;3.93;68.97;100754.36;106393;1308;22180;-69
2022/10/16 02:44:15;;;;;;;8.20;5.40;;;;;;;3.89;69.25;100754.77;106293;1307;137808;-69
2022/10/16 02:46:41;;;;;;;8.30;5.50;;;;;;;3.84;69.43;100757.23;106338;1307;22239;-70
2022/10/16 02:49:08;;;;;;;12.10;5.70;;;;;;;3.81;69.69;100759.04;106282;1307;137922;-69
2022/10/16 02:51:35;;;;;;;13.20;5.60;;;;;;;3.78;69.81;100757.74;106435;1305;22453;-71
2022/10/16 02:54:02;;;;;;;11.60;6.30;;;;;;;3.75;69.86;100757.79;106392;1308;22253;-70
2022/10/16 02:56:29;;;;;;;10.50;5.80;;;;;;;3.73;70.13;100762.27;106288;1300;138595;-69
2022/10/16 02:58:56;;;;;;;8.40;5.50;;;;;;;3.72;70.35;100764.55;106482;1306;22183;-68
2022/10/16 03:01:24;;;;;;;8.10;5.00;;;;;;;3.72;70.34;100768.84;106297;1306;139885;-66
2022/10/16 03:03:50;;;;;;;;;;;;;;;3.72;70.41;100769.74;106574;1302;22393;-67
2022/10/16 03:06:17;;;;;;;11.60;6.60;;;;;;;3.72;70.43;100772.72;106765;1302;22214;-69
2022/10/16 03:08:44;;;;;;;8.80;5.20;;;;;;;3.70;70.81;100776.38;106615;1302;138744;-68
2022/10/16 03:11:10;;;;;;;10.80;5.90;;;;;;;3.68;70.59;100774.73;106754;1302;22159;-69
2022/10/16 03:13:37;;;;;;;13.10;5.50;;;;;;;3.68;70.78;100779.31;106643;1294;138658;-69
2022/10/16 03:16:04;;;;;;;12.00;6.60;;;;;;;3.67;70.86;100779.25;106789;1299;22267;-68
2022/10/16 03:18:31;;;;;;;9.90;6.30;;;;;;;3.65;70.96;100781.59;106828;1302;22139;-69
2022/10/16 03:20:57;;;;;;;13.00;7.80;;;;;;;3.64;71.21;100781.35;106675;1302;138392;-70
2022/10/16 03:23:24;;;;;;;15.70;6.60;;;;;;;3.63;71.52;100779.73;106693;1302;22190;-69
2022/10/16 03:25:51;;;;;;;8.80;5.80;;;;;;;3.62;71.31;100786.77;106617;1302;137594;-69
2022/10/16 03:28:18;;;;;;;9.80;5.90;;;;;;;3.61;71.84;100788.88;106736;1301;22312;-69
2022/10/16 03:30:44;;;;;;;10.50;6.60;;;;;;;3.60;71.74;100792.84;106660;1287;138787;-67
2022/10/16 03:33:11;;;;;;;;;;;;;;;3.55;71.85;100785.30;106758;1302;22348;-69
2022/10/16 03:35:38;;;;;;;13.90;7.70;;;;;;;3.53;71.88;100791.27;106807;1302;22152;-69
2022/10/16 03:38:05;;;;;;;13.80;7.60;;;;;;;3.46;72.25;100791.31;106677;1302;138212;-69
2022/10/16 03:40:32;;;;;;;;;;;;;;;3.44;72.64;100794.76;106773;1302;23216;-73
2022/10/16 03:42:59;;;;;;;13.30;7.10;;;;;;;3.42;73.31;100794.77;106652;1302;124882;-72
2022/10/16 03:45:27;;;;;;;12.50;7.20;;;;;;;3.41;73.47;100793.83;106757;1294;22202;-74
2022/10/16 03:47:53;;;;;;;14.20;7.70;;;;;;;3.41;73.82;100793.13;106771;1299;22458;-74
2022/10/16 03:50:20;;;;;;;12.70;7.70;;;;;;;3.40;73.37;100789.29;106707;1302;138492;-73
2022/10/16 03:52:47;;;;;;;18.20;7.20;;;;;;;3.39;73.65;100788.48;106769;1294;22288;-73
2022/10/16 03:55:14;;;;;;;;;;;;;;;3.39;73.90;100787.04;106631;1302;139076;-73
2022/10/16 03:57:40;;;;;;;11.30;7.10;;;;;;;3.37;73.88;100788.11;106793;1299;22249;-74
2022/10/16 04:00:08;;;;;;;12.00;7.80;;;;;;;3.37;73.99;100791.52;106733;1302;22087;-74
2022/10/16 04:02:37;;;;;;;11.20;6.70;;;;;;;3.36;74.09;100796.14;106668;1296;138031;-74
2022/10/16 04:05:04;;;;;;;13.70;7.20;;;;;;;3.37;73.87;100796.11;106802;1302;22120;-74
2022/10/16 04:07:31;;;;;;;;;;;;;;;3.36;73.87;100801.36;106618;1302;138065;-73
2022/10/16 04:09:58;;;;;;;11.00;6.70;;;;;;;3.35;73.87;100798.13;106757;1294;23573;-74
2022/10/16 04:12:26;;;;;;;13.10;7.40;;;;;;;3.33;73.89;100796.41;106792;1302;22157;-73
2022/10/16 04:14:53;;;;;;;11.10;6.80;;;;;;;3.29;73.71;100799.92;106648;1302;139088;-74
2022/10/16 04:17:19;;;;;;;10.00;6.00;;;;;;;3.25;73.83;100797.98;106814;1302;22125;-72
2022/10/16 04:19:46;;;;;;;9.50;6.70;;;;;;;3.24;74.10;100800.89;106674;1302;139581;-73
2022/10/16 04:22:13;;;;;;;11.20;7.20;;;;;;;3.21;74.02;100801.38;106785;1302;22127;-73
2022/10/16 04:24:40;;;;;;;;;;;;;;;3.16;73.88;100799.80;106766;1302;23087;-72
2022/10/16 04:27:06;;;;;;;13.60;6.20;;;;;;;3.12;73.94;100803.46;106701;1302;124267;-72
2022/10/16 04:29:33;;;;;;;13.30;7.70;;;;;;;3.09;74.22;100803.81;106751;1302;22131;-72
2022/10/16 04:32:00;;;;;;;11.40;6.40;;;;;;;3.06;74.17;100811.36;106654;1301;137635;-72
2022/10/16 04:34:26;;;;;;;11.20;6.90;;;;;;;3.02;74.08;100813.83;106798;1302;23080;-72
2022/10/16 04:36:53;;;;;;;9.90;6.70;;;;;;;2.98;74.24;100817.88;106686;1294;137371;-72
2022/10/16 04:39:20;;;;;;;16.20;8.00;;;;;;;2.96;74.40;100824.92;106749;1302;23178;-67
2022/10/16 04:41:46;;;;;;;12.40;7.40;;;;;;;2.94;74.65;100829.77;106761;1302;22286;-67
2022/10/16 04:44:13;;;;;;;11.90;6.90;;;;;;;2.93;74.66;100833.48;106695;1301;139912;-67
2022/10/16 04:46:40;;;;;;;11.60;6.50;;;;;;;2.96;75.03;100840.73;106790;1302;22140;-67
2022/10/16 04:49:07;;;;;;;9.80;6.70;;;;;;;2.98;75.16;100840.54;106647;1302;140497;-67
2022/10/16 04:51:33;;;;;;;10.80;6.50;;;;;;;3.00;75.34;100844.02;106728;1302;22380;-69
2022/10/16 04:54:00;;;;;;;10.20;6.80;;;;;;;3.01;75.21;100848.94;106743;1302;22211;-67
2022/10/16 04:56:27;;;;;;;13.50;8.20;;;;;;;3.01;75.47;100850.89;106632;1301;138350;-68
2022/10/16 04:58:54;;;;;;;;;;;;;;;3.02;75.41;100854.19;106801;1297;22343;-68
2022/10/16 05:01:20;;;;;;;12.00;7.30;;;;;;;3.01;75.43;100855.94;106715;1302;124490;-68
2022/10/16 05:03:47;;;;;;;13.20;6.70;;;;;;;3.02;75.76;100858.39;106800;1301;22199;-68
2022/10/16 05:06:14;;;;;;;12.20;7.10;;;;;;;3.03;76.02;100860.69;106709;1299;22985;-68
2022/10/16 05:08:41;;;;;;;15.40;7.40;;;;;;;3.07;76.17;100858.95;106689;1301;138155;-68
2022/10/16 05:11:07;;;;;;;11.10;7.00;;;;;;;3.12;76.53;100864.85;106737;1302;22145;-68
2022/10/16 05:13:34;;;;;;;;;;;;;;;3.19;76.91;100868.84;106689;1302;138319;-68
2022/10/16 05:16:01;;;;;;;14.60;7.10;;;;;;;3.27;77.00;100869.61;106768;1302;22133;-68
2022/10/16 05:18:28;;;;;;;13.70;7.00;;;;;;;3.34;77.02;100875.09;106766;1302;23209;-67
2022/10/16 05:20:54;;;;;;;15.00;6.40;;;;;;;3.41;76.86;100879.96;106666;1302;138858;-68
2022/10/16 05:23:21;;;;;;;11.40;6.70;;;;;;;3.50;77.12;100879.42;106813;1293;22103;-68
2022/10/16 05:25:55;;;;;;;11.30;6.50;;;;;;;3.62;77.32;100880.93;106650;1301;139212;-68
2022/10/16 05:28:21;;;;;;;12.30;6.00;;;;;;;3.74;77.15;100884.84;106724;1304;22983;-67
2022/10/16 05:30:48;;;;;;;14.70;6.80;;;;;;;3.89;77.05;100886.01;106679;1301;138549;-68
2022/10/16 05:33:15;;;;;;;12.70;6.10;;;;;;;4.03;76.73;100891.48;106761;1305;22191;-68
2022/10/16 05:35:42;;;;;;;;;;;;;;;4.18;76.73;100890.85;106773;1300;22350;-68
2022/10/16 05:38:09;;;;;;;10.80;5.90;;;;;;;4.33;76.44;100894.98;106675;1302;124306;-68
2022/10/16 05:40:35;;;;;;;13.40;6.40;;;;;;;4.47;76.07;100899.31;106720;1304;22974;-77
2022/10/16 05:43:02;;;;;;;9.70;5.60;;;;;;;4.61;75.87;100903.63;106667;1302;139186;-76
2022/10/16 05:45:29;;;;;;;11.50;6.50;;;;;;;4.75;75.24;100905.12;106773;1300;22086;-78
2022/10/16 05:47:56;;;;;;;13.60;6.30;;;;;;;4.89;75.06;100906.77;106780;1301;22866;-77
2022/10/16 05:50:22;;;;;;;11.10;7.10;;;;;;;5.04;74.61;100909.96;106664;1302;137602;-77
2022/10/16 05:52:49;;;;;;;12.70;5.90;;;;;;;5.20;74.02;100909.70;106804;1302;22185;-78
2022/10/16 05:55:16;;;;;;;13.50;6.80;;;;;;;5.34;73.51;100911.54;106645;1302;138373;-77
2022/10/16 05:57:42;;;;;;;12.20;6.60;;;;;;;5.48;73.03;100913.98;106755;1299;22235;-78
2022/10/16 06:00:10;;;;;;;22.90;8.20;;;;;;;5.60;72.71;100915.59;106767;1303;23262;-78
2022/10/16 06:02:39;;;;;;;17.70;6.80;;;;;;;5.74;71.65;100918.84;106643;1303;139021;-77
2022/10/16 06:05:06;;;;;;;12.20;7.00;;;;;;;5.85;71.66;100919.48;106769;1302;23399;-78
2022/10/16 06:07:36;;;;;;;10.30;6.00;;;;;;;5.98;71.00;100923.73;106662;1301;137378;-77
2022/10/16 06:10:03;;;;;;;8.60;5.20;;;;;;;6.09;70.66;100925.75;106756;1302;22135;-77
2022/10/16 06:12:30;;;;;;;12.00;5.50;;;;;;;6.19;70.17;100925.55;106767;1302;22311;-77
2022/10/16 06:14:57;;;;;;;9.20;5.80;;;;;;;6.28;69.75;100925.05;106625;1294;138548;-78
2022/10/16 06:17:24;;;;;;;9.80;5.30;;;;;;;6.38;69.53;100929.23;106724;1308;22308;-77
2022/10/16 06:19:51;;;;;;;8.70;5.20;;;;;;;6.46;68.99;100929.20;106600;1295;139069;-78
2022/10/16 06:22:18;;;;;;;8.70;4.60;;;;;;;6.55;68.55;100926.95;106752;1303;22202;-77
2022/10/16 06:26:42;;;;;;;7.90;5.30;;;;;;;6.73;68.32;100930.20;99347;1343;544808;-76
2022/10/16 06:29:08;;;;;;;12.20;6.20;;;;;;;6.80;67.67;100932.92;101097;1301;22512;-76
2022/10/16 06:31:35;;;;;;;;;;;;;;;6.88;67.53;100938.60;100624;1304;137373;-76
2022/10/16 06:34:04;;;;;;;12.10;5.60;;;;;;;6.93;67.45;100942.36;100949;1324;22503;-76
2022/10/16 06:36:31;;;;;;;18.60;6.30;;;;;;;7.00;67.07;100945.09;100956;1325;22567;-76
2022/10/16 06:38:58;;;;;;;11.20;5.70;;;;;;;7.09;66.85;100949.59;101594;1301;136701;-77
2022/10/16 06:41:25;;;;;;;;;;;;;;;7.18;66.35;100954.77;105354;1315;965113;-78
2022/10/16 06:43:52;;;;;;;13.30;7.50;;;;;;;7.26;65.69;100952.59;106498;1305;123757;-77
2022/10/16 06:46:20;;;;;;;11.30;6.20;;;;;;;7.32;65.41;100951.52;106527;1305;22365;-77
2022/10/16 06:48:47;;;;;;;10.40;7.00;;;;;;;7.39;65.42;100954.44;106489;1305;137786;-77
2022/10/16 06:51:18;;;;;;;13.90;7.50;;;;;;;7.44;65.32;100952.86;103362;1304;25112;-76
2022/10/16 06:53:49;;;;;;;15.20;7.00;;;;;;;7.49;65.22;100957.26;102313;1304;24267;-77
2022/10/16 06:56:32;;;;;;;13.80;8.40;;;;;;;7.55;64.89;100956.30;102216;1312;138182;-76
2022/10/16 06:58:59;;;;;;;12.90;7.00;;;;;;;7.62;64.78;100960.31;102286;1290;22951;-77
2022/10/16 07:01:27;;;;;;;12.20;6.30;;;;;;;7.68;64.48;100957.30;106193;1311;137161;-77
2022/10/16 07:03:53;;;;;;;15.90;7.10;;;;;;;7.75;63.99;100955.09;106711;1296;23420;-78
2022/10/16 07:06:22;;;;;;;14.00;7.60;;;;;;;7.80;63.87;100951.05;106705;1302;22894;-79
2022/10/16 07:08:49;;;;;;;12.50;7.30;;;;;;;7.82;63.88;100949.21;106606;1299;137457;-79
2022/10/16 07:11:16;;;;;;;;;;;;;;;7.89;63.90;100957.70;106707;1304;22449;-78
2022/10/16 07:13:43;;;;;;;16.20;7.80;;;;;;;7.95;63.81;100954.36;106481;1290;123653;-79
2022/10/16 07:16:15;;;;;;;15.00;7.50;;;;;;;8.01;63.81;100956.44;106600;1297;22931;-79
2022/10/16 07:18:44;;;;;;;14.60;7.10;;;;;;;8.08;63.71;100955.61;106540;1305;22156;-74
2022/10/16 07:21:16;;;;;;;23.10;15.70;;;;;;;8.16;63.54;100955.33;106590;1305;22124;-74
2022/10/16 07:23:43;;;;;;;12.60;7.60;;;;;;;8.25;63.21;100957.92;106500;1305;22341;-74
2022/10/16 07:26:10;;;;;;;10.50;6.50;;;;;;;8.32;63.07;100962.25;106478;1303;137408;-74
2022/10/16 07:28:37;;;;;;;12.40;6.60;;;;;;;8.39;62.96;100969.41;106506;1305;22315;-73
2022/10/16 07:31:13;;;;;;;15.40;7.90;;;;;;;8.46;62.39;100964.28;106506;1305;137565;-74
2022/10/16 07:33:41;;;;;;;11.00;6.60;;;;;;;8.54;62.04;100967.20;106453;1306;22149;-75
2022/10/16 07:36:08;;;;;;;10.70;6.50;;;;;;;8.61;62.01;100960.27;106576;1305;23248;-75
2022/10/16 07:38:42;;;;;;;12.90;7.30;;;;;;;8.67;61.88;100961.17;106428;1305;137928;-75
2022/10/16 07:41:13;;;;;;;19.70;8.70;;;;;;;8.74;61.52;100968.58;106577;1305;22097;-75
2022/10/16 07:43:40;;;;;;;12.10;6.40;;;;;;;8.81;61.43;100968.27;106458;1305;137337;-75
2022/10/16 07:46:07;;;;;;;9.10;5.90;;;;;;;8.90;61.21;100968.93;106593;1297;22897;-75
2022/10/16 07:48:34;;;;;;;11.40;6.30;;;;;;;8.92;60.86;100958.59;106551;1305;22144;-76
2022/10/16 07:51:02;;;;;;;11.60;6.30;;;;;;;9.04;60.69;100963.85;106491;1297;136787;-70
2022/10/16 07:53:29;;;;;;;10.80;6.70;;;;;;;9.08;60.61;100957.64;102660;1300;25387;-77
2022/10/16 07:55:59;;;;;;;11.90;5.60;;;;;;;9.13;60.34;100956.90;102243;1287;137046;-77
2022/10/16 07:58:27;;;;;;;11.10;5.80;;;;;;;9.18;60.03;100957.28;102458;1310;25365;-77
2022/10/16 08:00:55;;;;;;;10.60;6.30;;;;;;;9.24;59.82;100959.80;102278;1288;138094;-77
2022/10/16 08:03:23;;;;;;;12.30;5.70;;;;;;;9.28;59.94;100961.98;106134;1312;22127;-79
2022/10/16 08:05:50;;;;;;;8.30;5.90;;;;;;;9.33;59.70;100965.81;106599;1305;22217;-75
2022/10/16 08:08:17;;;;;;;9.00;6.10;;;;;;;9.39;59.43;100965.23;106503;1305;137090;-78
2022/10/16 08:10:44;;;;;;;10.30;6.30;;;;;;;9.45;59.17;100962.23;106569;1300;22179;-78
2022/10/16 08:13:10;;;;;;;8.50;5.30;;;;;;;9.49;58.99;100961.27;106475;1304;138132;-78
2022/10/16 08:15:37;;;;;;;;;;;;;;;9.55;58.98;100956.58;106617;1288;22427;-80
2022/10/16 08:18:04;;;;;;;7.80;4.90;;;;;;;9.61;58.62;100957.77;106588;1305;22180;-78
2022/10/16 08:20:31;;;;;;;11.10;5.70;;;;;;;9.67;58.63;100957.21;106481;1304;136898;-78
2022/10/16 08:22:59;;;;;;;8.10;5.30;;;;;;;9.72;58.80;100956.80;106707;1302;22250;-77
2022/10/16 08:25:26;;;;;;;12.10;6.30;;;;;;;9.77;58.41;100960.55;106423;1305;137243;-77
2022/10/16 08:27:52;;;;;;;;;;;;;;;9.83;58.24;100961.72;106607;1291;23223;-77
2022/10/16 08:30:20;;;;;;;6.70;4.40;;;;;;;9.89;57.87;100963.38;106551;1304;22133;-77
2022/10/16 08:32:47;;;;;;;12.50;5.40;;;;;;;9.93;57.59;100960.63;106586;1302;137987;-78
2022/10/16 08:35:14;;;;;;;;;;;;;;;9.97;57.53;100961.72;106576;1301;22380;-77
2022/10/16 08:37:41;;;;;;;9.80;6.00;;;;;;;10.03;57.32;100958.72;106460;1277;123600;-78
2022/10/16 08:40:19;;;;;;;8.00;5.00;;;;;;;10.08;57.02;100958.90;104891;1297;25249;-77
2022/10/16 08:43:08;;;;;;;9.30;5.00;;;;;;;10.12;56.81;100955.59;102324;1297;137361;-76
2022/10/16 08:45:39;;;;;;;10.60;4.70;;;;;;;10.16;56.89;100956.23;102329;1297;22475;-76
2022/10/16 08:48:12;;;;;;;9.10;5.70;;;;;;;10.21;56.60;100956.45;102386;1312;22506;-76
2022/10/16 08:50:39;;;;;;;10.10;7.20;;;;;;;10.26;56.42;100960.00;102143;1304;137022;-76
2022/10/16 08:53:06;;;;;;;10.80;5.90;;;;;;;10.34;55.78;100960.13;102266;1288;25481;-76
2022/10/16 08:55:46;;;;;;;;;;;;;;;10.39;55.17;100957.20;102250;1312;137319;-77
2022/10/16 08:58:18;;;;;;;49.10;18.60;;;;;;;10.42;54.68;100959.05;102255;1312;25203;-77
2022/10/16 09:00:53;;;;;;;9.00;4.90;;;;;;;10.45;54.16;100961.51;102295;1297;22911;-77
2022/10/16 09:03:23;;;;;;;10.50;4.60;;;;;;;10.48;53.86;100961.95;106487;1305;22591;-78
2022/10/16 09:06:05;;;;;;;9.10;4.30;;;;;;;10.51;53.69;100955.81;106603;1283;22611;-78
2022/10/16 09:08:51;;;;;;;64.40;24.60;;;;;;;10.53;54.00;100949.41;106486;1303;137811;-78
2022/10/16 09:11:25;;;;;;;58.70;21.50;;;;;;;10.57;53.81;100949.58;106583;1297;22234;-77
2022/10/16 09:14:11;;;;;;;18.00;7.20;;;;;;;10.61;54.15;100954.12;106471;1297;138814;-77
2022/10/16 09:16:41;;;;;;;9.80;4.90;;;;;;;10.65;54.10;100961.09;106454;1306;22132;-78
2022/10/16 09:19:08;;;;;;;83.40;40.40;;;;;;;10.70;53.77;100959.64;105449;1306;138344;-78
2022/10/16 09:21:39;;;;;;;;;;;;;;;10.75;53.63;100959.86;102434;1304;22621;-77
2022/10/16 09:24:17;;;;;;;18.70;8.90;;;;;;;10.79;53.85;100966.17;105612;1304;22483;-77
2022/10/16 09:26:44;;;;;;;55.50;16.40;;;;;;;10.83;53.36;100965.48;102291;1298;137527;-78
2022/10/16 09:29:12;;;;;;;9.60;5.30;;;;;;;10.86;53.34;100961.34;102345;1312;24074;-77
2022/10/16 09:31:39;;;;;;;14.20;6.90;;;;;;;10.87;53.88;100958.55;106060;1313;138544;-78
2022/10/16 09:34:06;;;;;;;25.00;17.00;;;;;;;10.88;53.69;100957.02;106572;1305;22144;-78
2022/10/16 09:36:41;;;;;;;10.00;4.90;;;;;;;10.90;53.43;100956.58;106515;1289;22398;-77
2022/10/16 09:39:09;;;;;;;23.90;11.00;;;;;;;10.91;52.60;100951.05;106316;1305;137540;-76
2022/10/16 09:41:37;;;;;;;35.40;17.40;;;;;;;10.91;53.04;100949.84;106593;1303;22192;-77
2022/10/16 09:44:05;;;;;;;27.40;12.70;;;;;;;10.91;52.80;100943.09;106428;1303;138403;-77
2022/10/16 09:46:33;;;;;;;8.10;4.40;;;;;;;10.93;52.84;100948.48;106743;1302;22188;-77
2022/10/16 09:49:20;;;;;;;7.90;3.80;;;;;;;10.95;52.82;100944.52;106515;1303;137932;-77
2022/10/16 09:51:47;;;;;;;11.60;9.10;;;;;;;10.97;52.62;100938.20;106554;1297;21948;-77
2022/10/16 09:54:15;;;;;;;14.60;8.90;;;;;;;11.01;52.54;100935.85;106565;1296;23282;-78
2022/10/16 09:56:45;;;;;;;60.80;27.70;;;;;;;11.04;52.38;100932.50;106542;1280;137452;-66
2022/10/16 09:59:16;;;;;;;12.10;6.40;;;;;;;11.07;53.02;100932.66;106691;1302;22256;-72
2022/10/16 10:01:44;;;;;;;9.70;4.30;;;;;;;11.09;53.57;100930.75;106580;1302;138615;-72
2022/10/16 10:04:10;;;;;;;6.80;3.50;;;;;;;11.10;53.44;100925.52;106686;1302;22142;-71
2022/10/16 10:06:40;;;;;;;;;;;;;;;11.12;53.12;100924.07;106604;1302;22374;-72
2022/10/16 10:09:20;;;;;;;32.00;17.10;;;;;;;11.14;52.80;100922.27;106623;1302;123331;-72
2022/10/16 10:11:54;;;;;;;16.40;7.30;;;;;;;11.15;52.68;100918.71;106648;1288;22939;-72
2022/10/16 10:14:26;;;;;;;8.10;4.70;;;;;;;11.21;52.72;100916.55;106485;1290;138137;-74
2022/10/16 10:17:21;;;;;;;32.90;15.60;;;;;;;11.24;52.57;100903.48;106650;1302;22213;-73
2022/10/16 10:19:50;;;;;;;13.50;5.70;;;;;;;11.28;52.21;100897.42;106604;1302;139219;-71
2022/10/16 10:22:26;;;;;;;29.30;14.90;;;;;;;11.31;51.77;100894.32;106650;1305;23040;-67
2022/10/16 10:25:03;;;;;;;12.80;6.70;;;;;;;11.33;51.97;100894.27;106442;1305;137952;-74
2022/10/16 10:27:37;;;;;;;11.30;4.50;;;;;;;11.35;51.32;100885.30;106720;1302;22214;-74
2022/10/16 10:30:20;;;;;;;6.70;3.30;;;;;;;11.32;51.35;100872.08;106621;1303;22125;-74
2022/10/16 10:33:11;;;;;;;12.20;6.10;;;;;;;11.36;51.51;100879.38;106545;1302;137835;-73
2022/10/16 10:35:51;;;;;;;9.60;4.00;;;;;;;11.37;51.81;100883.05;106587;1302;23041;-73
2022/10/16 10:38:30;;;;;;;10.10;4.20;;;;;;;11.39;51.64;100886.85;106545;1288;137656;-73
2022/10/16 10:41:14;;;;;;;7.60;3.60;;;;;;;11.41;51.56;100885.89;103348;1302;22555;-68
2022/10/16 10:44:15;;;;;;;14.20;6.50;;;;;;;11.42;51.70;100882.09;102147;1310;139149;-68
2022/10/16 10:46:42;;;;;;;12.40;8.10;;;;;;;11.43;51.93;100880.56;102295;1311;22461;-68
2022/10/16 10:49:33;;;;;;;15.40;12.80;;;;;;;11.46;51.81;100879.23;102205;1304;138894;-69
2022/10/16 10:52:12;;;;;;;34.20;15.90;;;;;;;11.50;51.57;100881.96;102179;1297;24359;-69
2022/10/16 10:54:54;;;;;;;13.30;6.40;;;;;;;11.51;51.59;100886.48;102179;1298;23079;-69
2022/10/16 10:57:29;;;;;;;13.90;6.30;;;;;;;11.54;51.69;100888.45;106302;1304;23017;-65
2022/10/16 11:00:28;;;;;;;16.30;11.70;;;;;;;11.56;51.21;100884.41;106496;1305;22132;-68
2022/10/16 11:03:39;;;;;;;10.10;3.20;;;;;;;11.56;50.92;100875.57;106401;1305;138241;-70
2022/10/16 11:06:17;;;;;;;6.70;3.30;;;;;;;11.57;50.69;100886.30;106111;1309;23456;-70
2022/10/16 11:08:50;;;;;;;;;;;;;;;11.58;50.65;100892.66;106019;1310;137517;-69
2022/10/16 11:11:35;;;;;;;95.90;39.20;;;;;;;11.58;50.72;100887.80;106132;1303;22329;-69
2022/10/16 11:14:19;;;;;;;50.40;24.50;;;;;;;11.57;50.39;100890.23;106074;1310;138176;-70
2022/10/16 11:17:11;;;;;;;16.20;7.80;;;;;;;11.57;50.39;100893.35;106169;1310;23395;-68
2022/10/16 11:19:42;;;;;;;15.60;8.10;;;;;;;11.58;50.81;100898.34;105999;1305;137622;-73
2022/10/16 11:22:22;;;;;;;15.20;10.50;;;;;;;11.61;50.91;100898.98;106110;1311;22197;-63
2022/10/16 11:25:13;;;;;;;9.80;5.60;;;;;;;11.64;50.56;100905.28;106079;1311;22322;-65
2022/10/16 11:27:49;;;;;;;80.90;45.50;;;;;;;11.65;50.28;100903.41;105905;1310;22260;-58
2022/10/16 11:30:19;;;;;;;23.10;14.40;;;;;;;11.65;50.58;100904.84;106098;1310;22999;-58
2022/10/16 11:32:58;;;;;;;28.90;24.10;;;;;;;11.67;50.37;100906.20;106034;1311;138499;-58
2022/10/16 11:35:33;;;;;;;61.70;30.00;;;;;;;11.68;50.00;100905.51;105959;1310;22211;-59
2022/10/16 11:38:00;;;;;;;30.30;14.40;;;;;;;11.66;50.14;100900.91;105927;1308;138570;-59